sensor_id;sensor_type;location;lat;lon;timestamp;P1;durP1;ratioP1;P2;durP2;ratioP2
79375;SDS011;68846;53.150;18.136;2023-03-30T00:01:10;12.30;;;7.50;;
79375;SDS011;68846;53.150;18.136;2023-03-30T00:03:40;15.20;;;7.60;;
79375;SDS011;68846;53.150;18.136;2023-03-30T00:06:11;17.50;;;8.60;;
79375;SDS011;68846;53.150;18.136;2023-03-30T00:08:40;17.30;;;9.10;;
79375;SDS011;68846;53.150;18.136;2023-03-30T00:11:08;15.40;;;8.80;;
79375;SDS011;68846;53.150;18.136;2023-03-30T00:13:38;13.90;;;7.70;;
79375;SDS011;68846;53.150;18.136;2023-03-30T00:16:06;11.90;;;7.50;;
79375;SDS011;68846;53.150;18.136;2023-03-30T00:18:36;12.00;;;6.70;;
79375;SDS011;68846;53.150;18.136;2023-03-30T00:21:05;10.60;;;7.20;;
79375;SDS011;68846;53.150;18.136;2023-03-30T00:23:34;13.40;;;6.70;;
79375;SDS011;68846;53.150;18.136;2023-03-30T00:26:02;14.50;;;7.50;;
79375;SDS011;68846;53.150;18.136;2023-03-30T00:28:29;10.70;;;7.00;;
79375;SDS011;68846;53.150;18.136;2023-03-30T00:30:58;12.70;;;7.20;;
79375;SDS011;68846;53.150;18.136;2023-03-30T00:33:25;13.20;;;7.00;;
79375;SDS011;68846;53.150;18.136;2023-03-30T00:35:53;15.80;;;7.80;;
79375;SDS011;68846;53.150;18.136;2023-03-30T00:38:22;13.50;;;8.10;;
79375;SDS011;68846;53.150;18.136;2023-03-30T00:40:51;13.50;;;7.50;;
79375;SDS011;68846;53.150;18.136;2023-03-30T00:43:28;15.60;;;7.80;;
79375;SDS011;68846;53.150;18.136;2023-03-30T00:45:56;16.20;;;7.90;;
79375;SDS011;68846;53.150;18.136;2023-03-30T00:48:33;12.90;;;7.70;;
79375;SDS011;68846;53.150;18.136;2023-03-30T00:51:05;15.70;;;8.50;;
79375;SDS011;68846;53.150;18.136;2023-03-30T00:53:42;12.70;;;7.40;;
79375;SDS011;68846;53.150;18.136;2023-03-30T00:56:13;13.80;;;8.30;;
79375;SDS011;68846;53.150;18.136;2023-03-30T00:58:43;14.90;;;8.40;;
79375;SDS011;68846;53.150;18.136;2023-03-30T01:01:12;15.30;;;8.00;;
79375;SDS011;68846;53.150;18.136;2023-03-30T01:03:44;14.40;;;8.70;;
79375;SDS011;68846;53.150;18.136;2023-03-30T01:06:13;12.00;;;7.70;;
79375;SDS011;68846;53.150;18.136;2023-03-30T01:08:43;15.80;;;8.30;;
79375;SDS011;68846;53.150;18.136;2023-03-30T01:11:10;15.90;;;8.60;;
79375;SDS011;68846;53.150;18.136;2023-03-30T01:13:38;17.70;;;9.10;;
79375;SDS011;68846;53.150;18.136;2023-03-30T01:18:42;13.20;;;7.80;;
79375;SDS011;68846;53.150;18.136;2023-03-30T01:26:57;14.40;;;7.80;;
79375;SDS011;68846;53.150;18.136;2023-03-30T01:29:31;12.90;;;8.00;;
79375;SDS011;68846;53.150;18.136;2023-03-30T01:32:15;14.30;;;8.20;;
79375;SDS011;68846;53.150;18.136;2023-03-30T01:41:14;16.00;;;9.20;;
79375;SDS011;68846;53.150;18.136;2023-03-30T01:46:47;14.30;;;8.60;;
79375;SDS011;68846;53.150;18.136;2023-03-30T01:54:50;14.60;;;8.10;;
79375;SDS011;68846;53.150;18.136;2023-03-30T01:58:25;15.40;;;8.60;;
79375;SDS011;68846;53.150;18.136;2023-03-30T02:00:36;16.30;;;8.40;;
79375;SDS011;68846;53.150;18.136;2023-03-30T02:03:17;17.50;;;9.20;;
79375;SDS011;68846;53.150;18.136;2023-03-30T02:05:49;18.50;;;10.30;;
79375;SDS011;68846;53.150;18.136;2023-03-30T02:08:19;22.30;;;10.20;;
79375;SDS011;68846;53.150;18.136;2023-03-30T02:10:50;18.80;;;9.80;;
79375;SDS011;68846;53.150;18.136;2023-03-30T02:13:20;15.40;;;8.70;;
79375;SDS011;68846;53.150;18.136;2023-03-30T02:15:50;13.50;;;8.30;;
79375;SDS011;68846;53.150;18.136;2023-03-30T02:21:45;14.30;;;8.60;;
79375;SDS011;68846;53.150;18.136;2023-03-30T02:24:18;14.30;;;7.70;;
79375;SDS011;68846;53.150;18.136;2023-03-30T02:26:50;14.70;;;8.50;;
79375;SDS011;68846;53.150;18.136;2023-03-30T02:29:18;13.60;;;8.50;;
79375;SDS011;68846;53.150;18.136;2023-03-30T02:31:48;16.10;;;9.00;;
79375;SDS011;68846;53.150;18.136;2023-03-30T03:02:39;17.20;;;8.80;;
79375;SDS011;68846;53.150;18.136;2023-03-30T03:05:21;13.60;;;9.60;;
79375;SDS011;68846;53.150;18.136;2023-03-30T03:07:55;14.30;;;9.70;;
79375;SDS011;68846;53.150;18.136;2023-03-30T03:10:23;13.70;;;9.80;;
79375;SDS011;68846;53.150;18.136;2023-03-30T03:15:17;15.30;;;8.50;;
79375;SDS011;68846;53.150;18.136;2023-03-30T03:17:59;13.60;;;8.40;;
79375;SDS011;68846;53.150;18.136;2023-03-30T03:20:26;15.40;;;8.70;;
79375;SDS011;68846;53.150;18.136;2023-03-30T03:22:57;12.90;;;8.70;;
79375;SDS011;68846;53.150;18.136;2023-03-30T03:25:24;15.30;;;8.80;;
79375;SDS011;68846;53.150;18.136;2023-03-30T03:27:57;18.60;;;8.70;;
79375;SDS011;68846;53.150;18.136;2023-03-30T03:30:26;16.70;;;9.60;;
79375;SDS011;68846;53.150;18.136;2023-03-30T03:33:02;13.80;;;8.70;;
79375;SDS011;68846;53.150;18.136;2023-03-30T03:35:29;18.00;;;9.80;;
79375;SDS011;68846;53.150;18.136;2023-03-30T03:37:57;22.20;;;11.00;;
79375;SDS011;68846;53.150;18.136;2023-03-30T03:40:24;18.60;;;10.50;;
79375;SDS011;68846;53.150;18.136;2023-03-30T03:42:51;19.70;;;10.50;;
79375;SDS011;68846;53.150;18.136;2023-03-30T03:47:53;17.40;;;9.90;;
79375;SDS011;68846;53.150;18.136;2023-03-30T03:50:32;20.60;;;9.60;;
79375;SDS011;68846;53.150;18.136;2023-03-30T03:55:27;16.70;;;9.00;;
79375;SDS011;68846;53.150;18.136;2023-03-30T03:57:54;19.10;;;10.00;;
79375;SDS011;68846;53.150;18.136;2023-03-30T04:02:50;18.20;;;10.00;;
79375;SDS011;68846;53.150;18.136;2023-03-30T04:05:18;18.10;;;9.90;;
79375;SDS011;68846;53.150;18.136;2023-03-30T04:07:44;19.40;;;9.90;;
79375;SDS011;68846;53.150;18.136;2023-03-30T04:10:12;17.90;;;10.60;;
79375;SDS011;68846;53.150;18.136;2023-03-30T04:12:56;20.50;;;10.40;;
79375;SDS011;68846;53.150;18.136;2023-03-30T04:15:34;18.20;;;9.90;;
79375;SDS011;68846;53.150;18.136;2023-03-30T04:18:20;18.20;;;10.50;;
79375;SDS011;68846;53.150;18.136;2023-03-30T04:21:03;21.00;;;11.70;;
79375;SDS011;68846;53.150;18.136;2023-03-30T04:23:52;27.30;;;13.90;;
79375;SDS011;68846;53.150;18.136;2023-03-30T04:26:18;22.90;;;12.80;;
79375;SDS011;68846;53.150;18.136;2023-03-30T04:29:04;19.30;;;11.30;;
79375;SDS011;68846;53.150;18.136;2023-03-30T04:31:50;14.70;;;10.10;;
79375;SDS011;68846;53.150;18.136;2023-03-30T04:34:22;16.10;;;11.20;;
79375;SDS011;68846;53.150;18.136;2023-03-30T04:37:08;19.60;;;11.50;;
79375;SDS011;68846;53.150;18.136;2023-03-30T04:40:02;17.40;;;11.40;;
79375;SDS011;68846;53.150;18.136;2023-03-30T04:42:52;18.60;;;13.00;;
79375;SDS011;68846;53.150;18.136;2023-03-30T04:45:38;22.30;;;12.10;;
79375;SDS011;68846;53.150;18.136;2023-03-30T04:48:25;18.00;;;11.70;;
79375;SDS011;68846;53.150;18.136;2023-03-30T04:51:11;17.70;;;11.80;;
79375;SDS011;68846;53.150;18.136;2023-03-30T04:53:57;20.70;;;11.80;;
79375;SDS011;68846;53.150;18.136;2023-03-30T04:56:44;18.20;;;11.70;;
79375;SDS011;68846;53.150;18.136;2023-03-30T04:59:34;19.10;;;12.30;;
79375;SDS011;68846;53.150;18.136;2023-03-30T05:02:20;18.80;;;12.80;;
79375;SDS011;68846;53.150;18.136;2023-03-30T05:05:05;24.50;;;15.60;;
79375;SDS011;68846;53.150;18.136;2023-03-30T05:07:51;34.70;;;18.50;;
79375;SDS011;68846;53.150;18.136;2023-03-30T05:10:39;22.60;;;14.40;;
79375;SDS011;68846;53.150;18.136;2023-03-30T05:13:25;19.30;;;11.30;;
79375;SDS011;68846;53.150;18.136;2023-03-30T05:16:21;18.50;;;10.40;;
79375;SDS011;68846;53.150;18.136;2023-03-30T05:19:07;19.80;;;10.90;;
79375;SDS011;68846;53.150;18.136;2023-03-30T05:22:06;21.50;;;10.10;;
79375;SDS011;68846;53.150;18.136;2023-03-30T05:25:03;18.20;;;10.70;;
79375;SDS011;68846;53.150;18.136;2023-03-30T05:27:48;18.50;;;10.50;;
79375;SDS011;68846;53.150;18.136;2023-03-30T05:30:38;17.50;;;11.00;;
79375;SDS011;68846;53.150;18.136;2023-03-30T05:33:24;17.00;;;10.60;;
79375;SDS011;68846;53.150;18.136;2023-03-30T05:36:17;18.10;;;11.00;;
79375;SDS011;68846;53.150;18.136;2023-03-30T05:38:56;21.30;;;11.00;;
79375;SDS011;68846;53.150;18.136;2023-03-30T05:41:46;17.40;;;9.80;;
79375;SDS011;68846;53.150;18.136;2023-03-30T05:44:33;16.50;;;10.40;;
79375;SDS011;68846;53.150;18.136;2023-03-30T05:47:38;18.40;;;10.50;;
79375;SDS011;68846;53.150;18.136;2023-03-30T05:50:26;26.60;;;13.90;;
79375;SDS011;68846;53.150;18.136;2023-03-30T05:53:04;22.80;;;11.50;;
79375;SDS011;68846;53.150;18.136;2023-03-30T05:56:01;24.80;;;12.70;;
79375;SDS011;68846;53.150;18.136;2023-03-30T05:58:52;16.40;;;10.20;;
79375;SDS011;68846;53.150;18.136;2023-03-30T06:01:44;19.10;;;10.60;;
79375;SDS011;68846;53.150;18.136;2023-03-30T06:04:12;19.40;;;10.00;;
79375;SDS011;68846;53.150;18.136;2023-03-30T06:06:39;16.60;;;10.70;;
79375;SDS011;68846;53.150;18.136;2023-03-30T06:09:06;19.20;;;11.10;;
79375;SDS011;68846;53.150;18.136;2023-03-30T06:11:33;18.50;;;10.80;;
79375;SDS011;68846;53.150;18.136;2023-03-30T06:14:06;22.60;;;11.50;;
79375;SDS011;68846;53.150;18.136;2023-03-30T06:16:35;20.80;;;11.60;;
79375;SDS011;68846;53.150;18.136;2023-03-30T06:19:02;16.30;;;10.90;;
79375;SDS011;68846;53.150;18.136;2023-03-30T06:21:30;20.20;;;12.00;;
79375;SDS011;68846;53.150;18.136;2023-03-30T06:24:17;17.90;;;10.80;;
79375;SDS011;68846;53.150;18.136;2023-03-30T06:26:47;19.40;;;11.10;;
79375;SDS011;68846;53.150;18.136;2023-03-30T06:29:15;24.00;;;12.50;;
79375;SDS011;68846;53.150;18.136;2023-03-30T06:31:42;20.40;;;11.70;;
79375;SDS011;68846;53.150;18.136;2023-03-30T06:34:29;24.80;;;13.40;;
79375;SDS011;68846;53.150;18.136;2023-03-30T06:36:57;21.60;;;12.50;;
79375;SDS011;68846;53.150;18.136;2023-03-30T06:39:24;18.00;;;11.90;;
79375;SDS011;68846;53.150;18.136;2023-03-30T06:41:51;21.40;;;12.60;;
79375;SDS011;68846;53.150;18.136;2023-03-30T06:44:35;22.30;;;11.50;;
79375;SDS011;68846;53.150;18.136;2023-03-30T06:47:08;18.20;;;10.70;;
79375;SDS011;68846;53.150;18.136;2023-03-30T06:49:34;20.30;;;13.40;;
79375;SDS011;68846;53.150;18.136;2023-03-30T06:52:34;19.10;;;10.90;;
79375;SDS011;68846;53.150;18.136;2023-03-30T06:55:02;17.90;;;11.50;;
79375;SDS011;68846;53.150;18.136;2023-03-30T06:57:31;18.60;;;10.70;;
79375;SDS011;68846;53.150;18.136;2023-03-30T06:59:58;18.30;;;11.50;;
79375;SDS011;68846;53.150;18.136;2023-03-30T07:02:52;19.20;;;11.70;;
79375;SDS011;68846;53.150;18.136;2023-03-30T07:05:41;18.90;;;10.70;;
79375;SDS011;68846;53.150;18.136;2023-03-30T07:08:34;23.90;;;13.70;;
79375;SDS011;68846;53.150;18.136;2023-03-30T07:11:03;22.60;;;13.30;;
79375;SDS011;68846;53.150;18.136;2023-03-30T07:13:36;22.30;;;12.50;;
79375;SDS011;68846;53.150;18.136;2023-03-30T07:16:04;27.30;;;13.60;;
79375;SDS011;68846;53.150;18.136;2023-03-30T07:18:31;20.30;;;12.90;;
79375;SDS011;68846;53.150;18.136;2023-03-30T07:23:30;19.20;;;12.30;;
79375;SDS011;68846;53.150;18.136;2023-03-30T07:25:57;19.60;;;11.60;;
79375;SDS011;68846;53.150;18.136;2023-03-30T07:28:38;19.50;;;11.90;;
79375;SDS011;68846;53.150;18.136;2023-03-30T07:31:07;18.40;;;12.30;;
79375;SDS011;68846;53.150;18.136;2023-03-30T07:33:36;21.50;;;13.40;;
79375;SDS011;68846;53.150;18.136;2023-03-30T07:36:04;22.80;;;11.90;;
79375;SDS011;68846;53.150;18.136;2023-03-30T07:38:32;20.70;;;12.50;;
79375;SDS011;68846;53.150;18.136;2023-03-30T07:41:00;17.20;;;12.50;;
79375;SDS011;68846;53.150;18.136;2023-03-30T07:43:33;21.60;;;12.00;;
79375;SDS011;68846;53.150;18.136;2023-03-30T07:46:01;20.80;;;13.90;;
79375;SDS011;68846;53.150;18.136;2023-03-30T07:48:32;25.40;;;14.80;;
79375;SDS011;68846;53.150;18.136;2023-03-30T07:51:03;23.40;;;13.30;;
79375;SDS011;68846;53.150;18.136;2023-03-30T07:53:34;18.30;;;11.30;;
79375;SDS011;68846;53.150;18.136;2023-03-30T07:56:03;17.50;;;11.10;;
79375;SDS011;68846;53.150;18.136;2023-03-30T07:58:40;18.30;;;12.20;;
79375;SDS011;68846;53.150;18.136;2023-03-30T08:01:07;17.00;;;11.30;;
79375;SDS011;68846;53.150;18.136;2023-03-30T08:03:57;18.70;;;12.70;;
79375;SDS011;68846;53.150;18.136;2023-03-30T08:06:25;19.40;;;12.10;;
79375;SDS011;68846;53.150;18.136;2023-03-30T08:08:55;16.70;;;11.40;;
79375;SDS011;68846;53.150;18.136;2023-03-30T08:11:22;22.30;;;13.20;;
79375;SDS011;68846;53.150;18.136;2023-03-30T08:13:49;23.40;;;13.90;;
79375;SDS011;68846;53.150;18.136;2023-03-30T08:16:16;22.10;;;13.80;;
79375;SDS011;68846;53.150;18.136;2023-03-30T08:18:43;23.00;;;12.90;;
79375;SDS011;68846;53.150;18.136;2023-03-30T08:21:12;19.30;;;12.20;;
79375;SDS011;68846;53.150;18.136;2023-03-30T08:26:06;17.00;;;11.50;;
79375;SDS011;68846;53.150;18.136;2023-03-30T08:31:04;18.80;;;12.10;;
79375;SDS011;68846;53.150;18.136;2023-03-30T08:33:32;18.30;;;11.80;;
79375;SDS011;68846;53.150;18.136;2023-03-30T08:36:00;20.10;;;11.90;;
79375;SDS011;68846;53.150;18.136;2023-03-30T08:38:27;21.20;;;13.30;;
79375;SDS011;68846;53.150;18.136;2023-03-30T08:40:54;21.50;;;13.00;;
79375;SDS011;68846;53.150;18.136;2023-03-30T08:45:59;21.90;;;12.50;;
79375;SDS011;68846;53.150;18.136;2023-03-30T08:48:28;16.80;;;11.10;;
79375;SDS011;68846;53.150;18.136;2023-03-30T08:50:59;18.60;;;11.20;;
79375;SDS011;68846;53.150;18.136;2023-03-30T08:53:31;17.50;;;11.30;;
79375;SDS011;68846;53.150;18.136;2023-03-30T08:56:00;19.60;;;12.10;;
79375;SDS011;68846;53.150;18.136;2023-03-30T08:58:39;19.70;;;12.80;;
79375;SDS011;68846;53.150;18.136;2023-03-30T09:01:13;18.30;;;12.30;;
79375;SDS011;68846;53.150;18.136;2023-03-30T09:09:20;20.70;;;11.70;;
79375;SDS011;68846;53.150;18.136;2023-03-30T09:11:54;21.10;;;12.30;;
79375;SDS011;68846;53.150;18.136;2023-03-30T09:14:27;17.30;;;11.30;;
79375;SDS011;68846;53.150;18.136;2023-03-30T09:17:20;22.30;;;11.50;;
79375;SDS011;68846;53.150;18.136;2023-03-30T09:19:55;18.30;;;11.60;;
79375;SDS011;68846;53.150;18.136;2023-03-30T09:22:47;17.50;;;11.60;;
79375;SDS011;68846;53.150;18.136;2023-03-30T09:28:18;21.20;;;12.00;;
79375;SDS011;68846;53.150;18.136;2023-03-30T09:30:52;17.00;;;12.00;;
79375;SDS011;68846;53.150;18.136;2023-03-30T09:33:26;17.30;;;12.90;;
79375;SDS011;68846;53.150;18.136;2023-03-30T09:38:37;18.20;;;12.50;;
79375;SDS011;68846;53.150;18.136;2023-03-30T09:41:14;22.60;;;12.80;;
79375;SDS011;68846;53.150;18.136;2023-03-30T09:43:43;19.70;;;13.10;;
79375;SDS011;68846;53.150;18.136;2023-03-30T09:46:14;16.80;;;11.90;;
79375;SDS011;68846;53.150;18.136;2023-03-30T09:48:43;19.10;;;11.70;;
79375;SDS011;68846;53.150;18.136;2023-03-30T09:53:57;20.80;;;11.90;;
79375;SDS011;68846;53.150;18.136;2023-03-30T09:58:54;19.00;;;13.30;;
79375;SDS011;68846;53.150;18.136;2023-03-30T10:01:21;20.10;;;12.80;;
79375;SDS011;68846;53.150;18.136;2023-03-30T10:07:26;17.00;;;11.30;;
79375;SDS011;68846;53.150;18.136;2023-03-30T10:10:15;20.50;;;12.80;;
79375;SDS011;68846;53.150;18.136;2023-03-30T10:12:56;15.70;;;12.10;;
79375;SDS011;68846;53.150;18.136;2023-03-30T10:15:30;20.00;;;12.60;;
79375;SDS011;68846;53.150;18.136;2023-03-30T10:21:06;22.70;;;11.60;;
79375;SDS011;68846;53.150;18.136;2023-03-30T10:23:39;14.20;;;10.40;;
79375;SDS011;68846;53.150;18.136;2023-03-30T10:26:14;17.00;;;10.70;;
79375;SDS011;68846;53.150;18.136;2023-03-30T10:28:51;16.70;;;10.90;;
79375;SDS011;68846;53.150;18.136;2023-03-30T10:31:20;17.30;;;11.60;;
79375;SDS011;68846;53.150;18.136;2023-03-30T10:33:48;19.30;;;12.70;;
79375;SDS011;68846;53.150;18.136;2023-03-30T10:36:20;17.20;;;11.90;;
79375;SDS011;68846;53.150;18.136;2023-03-30T10:38:50;16.90;;;12.50;;
79375;SDS011;68846;53.150;18.136;2023-03-30T10:41:20;19.00;;;12.10;;
79375;SDS011;68846;53.150;18.136;2023-03-30T10:43:49;18.20;;;12.10;;
79375;SDS011;68846;53.150;18.136;2023-03-30T10:46:17;21.80;;;11.70;;
79375;SDS011;68846;53.150;18.136;2023-03-30T10:48:51;16.30;;;10.50;;
79375;SDS011;68846;53.150;18.136;2023-03-30T10:54:16;17.10;;;10.30;;
79375;SDS011;68846;53.150;18.136;2023-03-30T10:56:47;13.50;;;8.50;;
79375;SDS011;68846;53.150;18.136;2023-03-30T11:05:20;17.60;;;9.60;;
79375;SDS011;68846;53.150;18.136;2023-03-30T11:10:25;16.80;;;11.80;;
79375;SDS011;68846;53.150;18.136;2023-03-30T11:15:45;15.40;;;10.70;;
79375;SDS011;68846;53.150;18.136;2023-03-30T11:18:23;18.20;;;10.50;;
79375;SDS011;68846;53.150;18.136;2023-03-30T11:21:02;14.90;;;10.50;;
79375;SDS011;68846;53.150;18.136;2023-03-30T11:23:39;14.60;;;10.30;;
79375;SDS011;68846;53.150;18.136;2023-03-30T11:26:15;16.90;;;11.40;;
79375;SDS011;68846;53.150;18.136;2023-03-30T11:28:52;15.90;;;11.40;;
79375;SDS011;68846;53.150;18.136;2023-03-30T11:39:39;15.10;;;11.00;;
79375;SDS011;68846;53.150;18.136;2023-03-30T11:44:50;14.70;;;9.50;;
79375;SDS011;68846;53.150;18.136;2023-03-30T11:47:41;13.10;;;8.40;;
79375;SDS011;68846;53.150;18.136;2023-03-30T11:55:42;13.40;;;8.70;;
79375;SDS011;68846;53.150;18.136;2023-03-30T11:58:45;12.70;;;9.00;;
79375;SDS011;68846;53.150;18.136;2023-03-30T12:04:08;14.60;;;10.00;;
79375;SDS011;68846;53.150;18.136;2023-03-30T12:06:51;15.00;;;9.80;;
79375;SDS011;68846;53.150;18.136;2023-03-30T12:12:13;16.20;;;10.30;;
79375;SDS011;68846;53.150;18.136;2023-03-30T12:14:48;15.60;;;11.00;;
79375;SDS011;68846;53.150;18.136;2023-03-30T12:17:38;15.50;;;10.50;;
79375;SDS011;68846;53.150;18.136;2023-03-30T12:31:15;16.70;;;9.50;;
79375;SDS011;68846;53.150;18.136;2023-03-30T12:39:01;12.30;;;8.50;;
79375;SDS011;68846;53.150;18.136;2023-03-30T12:41:38;11.10;;;8.90;;
79375;SDS011;68846;53.150;18.136;2023-03-30T12:44:16;14.30;;;9.70;;
79375;SDS011;68846;53.150;18.136;2023-03-30T12:52:11;13.00;;;9.70;;
79375;SDS011;68846;53.150;18.136;2023-03-30T13:03:45;17.20;;;10.20;;
79375;SDS011;68846;53.150;18.136;2023-03-30T13:06:29;15.80;;;10.60;;
79375;SDS011;68846;53.150;18.136;2023-03-30T13:11:41;13.80;;;9.20;;
79375;SDS011;68846;53.150;18.136;2023-03-30T13:22:17;13.80;;;8.70;;
79375;SDS011;68846;53.150;18.136;2023-03-30T13:24:54;14.60;;;9.70;;
79375;SDS011;68846;53.150;18.136;2023-03-30T13:27:31;16.10;;;10.20;;
79375;SDS011;68846;53.150;18.136;2023-03-30T13:30:10;15.20;;;10.60;;
79375;SDS011;68846;53.150;18.136;2023-03-30T13:38:01;15.40;;;10.30;;
79375;SDS011;68846;53.150;18.136;2023-03-30T13:54:13;12.90;;;7.80;;
79375;SDS011;68846;53.150;18.136;2023-03-30T13:57:05;13.80;;;8.10;;
79375;SDS011;68846;53.150;18.136;2023-03-30T13:59:34;12.60;;;8.70;;
79375;SDS011;68846;53.150;18.136;2023-03-30T14:02:03;15.70;;;9.80;;
79375;SDS011;68846;53.150;18.136;2023-03-30T14:04:32;14.90;;;9.50;;
79375;SDS011;68846;53.150;18.136;2023-03-30T14:07:03;17.00;;;9.90;;
79375;SDS011;68846;53.150;18.136;2023-03-30T14:09:39;14.80;;;9.00;;
79375;SDS011;68846;53.150;18.136;2023-03-30T14:12:06;19.10;;;11.40;;
79375;SDS011;68846;53.150;18.136;2023-03-30T14:14:36;14.00;;;9.60;;
79375;SDS011;68846;53.150;18.136;2023-03-30T14:17:14;16.40;;;10.20;;
79375;SDS011;68846;53.150;18.136;2023-03-30T14:19:49;18.10;;;11.00;;
79375;SDS011;68846;53.150;18.136;2023-03-30T14:22:23;17.90;;;10.70;;
79375;SDS011;68846;53.150;18.136;2023-03-30T14:24:57;19.20;;;10.80;;
79375;SDS011;68846;53.150;18.136;2023-03-30T14:27:31;18.00;;;10.10;;
79375;SDS011;68846;53.150;18.136;2023-03-30T14:32:26;14.20;;;9.60;;
79375;SDS011;68846;53.150;18.136;2023-03-30T14:37:21;14.20;;;9.10;;
79375;SDS011;68846;53.150;18.136;2023-03-30T14:39:57;12.30;;;9.20;;
79375;SDS011;68846;53.150;18.136;2023-03-30T14:44:52;13.80;;;9.50;;
79375;SDS011;68846;53.150;18.136;2023-03-30T14:47:24;14.90;;;10.70;;
79375;SDS011;68846;53.150;18.136;2023-03-30T14:49:54;16.40;;;11.00;;
79375;SDS011;68846;53.150;18.136;2023-03-30T14:52:25;15.50;;;10.90;;
79375;SDS011;68846;53.150;18.136;2023-03-30T14:54:57;16.60;;;11.10;;
79375;SDS011;68846;53.150;18.136;2023-03-30T14:57:25;17.40;;;10.70;;
79375;SDS011;68846;53.150;18.136;2023-03-30T14:59:54;14.40;;;10.10;;
79375;SDS011;68846;53.150;18.136;2023-03-30T15:02:28;18.90;;;10.50;;
79375;SDS011;68846;53.150;18.136;2023-03-30T15:04:57;17.20;;;10.30;;
79375;SDS011;68846;53.150;18.136;2023-03-30T15:07:29;17.90;;;11.00;;
79375;SDS011;68846;53.150;18.136;2023-03-30T15:09:57;18.40;;;11.50;;
79375;SDS011;68846;53.150;18.136;2023-03-30T15:12:28;17.90;;;11.30;;
79375;SDS011;68846;53.150;18.136;2023-03-30T15:15:00;16.10;;;11.10;;
79375;SDS011;68846;53.150;18.136;2023-03-30T15:17:34;15.80;;;10.50;;
79375;SDS011;68846;53.150;18.136;2023-03-30T15:20:09;17.40;;;10.80;;
79375;SDS011;68846;53.150;18.136;2023-03-30T15:22:44;18.20;;;11.20;;
79375;SDS011;68846;53.150;18.136;2023-03-30T15:25:20;18.20;;;10.80;;
79375;SDS011;68846;53.150;18.136;2023-03-30T15:28:04;15.50;;;10.60;;
79375;SDS011;68846;53.150;18.136;2023-03-30T15:33:24;17.40;;;11.70;;
79375;SDS011;68846;53.150;18.136;2023-03-30T15:36:21;17.80;;;11.30;;
79375;SDS011;68846;53.150;18.136;2023-03-30T15:39:18;18.60;;;12.10;;
79375;SDS011;68846;53.150;18.136;2023-03-30T15:44:45;16.90;;;9.70;;
79375;SDS011;68846;53.150;18.136;2023-03-30T15:47:36;15.40;;;9.30;;
79375;SDS011;68846;53.150;18.136;2023-03-30T15:50:20;16.40;;;9.50;;
79375;SDS011;68846;53.150;18.136;2023-03-30T15:53:16;17.70;;;9.90;;
79375;SDS011;68846;53.150;18.136;2023-03-30T15:56:33;15.50;;;10.40;;
79375;SDS011;68846;53.150;18.136;2023-03-30T15:59:23;18.10;;;11.00;;
79375;SDS011;68846;53.150;18.136;2023-03-30T16:02:39;18.20;;;11.50;;
79375;SDS011;68846;53.150;18.136;2023-03-30T16:05:22;18.10;;;12.20;;
79375;SDS011;68846;53.150;18.136;2023-03-30T16:08:09;22.60;;;12.10;;
79375;SDS011;68846;53.150;18.136;2023-03-30T16:10:44;17.00;;;11.80;;
79375;SDS011;68846;53.150;18.136;2023-03-30T16:13:17;21.20;;;12.00;;
79375;SDS011;68846;53.150;18.136;2023-03-30T16:15:53;19.60;;;11.30;;
79375;SDS011;68846;53.150;18.136;2023-03-30T16:18:31;18.00;;;10.90;;
79375;SDS011;68846;53.150;18.136;2023-03-30T16:21:06;18.60;;;11.40;;
79375;SDS011;68846;53.150;18.136;2023-03-30T16:23:41;17.00;;;10.80;;
79375;SDS011;68846;53.150;18.136;2023-03-30T16:26:20;17.90;;;12.10;;
79375;SDS011;68846;53.150;18.136;2023-03-30T16:28:59;17.30;;;11.70;;
79375;SDS011;68846;53.150;18.136;2023-03-30T16:31:37;18.00;;;11.60;;
79375;SDS011;68846;53.150;18.136;2023-03-30T16:34:16;18.40;;;11.70;;
79375;SDS011;68846;53.150;18.136;2023-03-30T16:36:56;18.90;;;11.90;;
79375;SDS011;68846;53.150;18.136;2023-03-30T16:39:38;19.90;;;11.60;;
79375;SDS011;68846;53.150;18.136;2023-03-30T16:42:16;23.90;;;12.90;;
79375;SDS011;68846;53.150;18.136;2023-03-30T16:44:59;21.80;;;13.60;;
79375;SDS011;68846;53.150;18.136;2023-03-30T16:47:41;21.00;;;11.80;;
79375;SDS011;68846;53.150;18.136;2023-03-30T16:53:13;22.00;;;12.90;;
79375;SDS011;68846;53.150;18.136;2023-03-30T16:55:56;28.20;;;15.90;;
79375;SDS011;68846;53.150;18.136;2023-03-30T16:58:33;27.00;;;14.80;;
79375;SDS011;68846;53.150;18.136;2023-03-30T17:01:12;27.00;;;15.40;;
79375;SDS011;68846;53.150;18.136;2023-03-30T17:03:54;31.00;;;16.00;;
79375;SDS011;68846;53.150;18.136;2023-03-30T17:06:34;32.20;;;16.40;;
79375;SDS011;68846;53.150;18.136;2023-03-30T17:09:16;25.80;;;14.40;;
79375;SDS011;68846;53.150;18.136;2023-03-30T17:11:56;28.60;;;15.50;;
79375;SDS011;68846;53.150;18.136;2023-03-30T17:14:56;22.60;;;13.90;;
79375;SDS011;68846;53.150;18.136;2023-03-30T17:17:26;27.00;;;14.90;;
79375;SDS011;68846;53.150;18.136;2023-03-30T17:19:59;24.90;;;15.70;;
79375;SDS011;68846;53.150;18.136;2023-03-30T17:22:58;28.40;;;15.70;;
79375;SDS011;68846;53.150;18.136;2023-03-30T17:25:32;30.30;;;18.10;;
79375;SDS011;68846;53.150;18.136;2023-03-30T17:28:21;34.50;;;19.70;;
79375;SDS011;68846;53.150;18.136;2023-03-30T17:31:01;35.20;;;18.60;;
79375;SDS011;68846;53.150;18.136;2023-03-30T17:33:42;33.90;;;17.90;;
79375;SDS011;68846;53.150;18.136;2023-03-30T17:36:19;31.30;;;16.70;;
79375;SDS011;68846;53.150;18.136;2023-03-30T17:38:55;29.00;;;16.90;;
79375;SDS011;68846;53.150;18.136;2023-03-30T17:41:31;30.10;;;17.20;;
79375;SDS011;68846;53.150;18.136;2023-03-30T17:44:08;28.90;;;17.20;;
79375;SDS011;68846;53.150;18.136;2023-03-30T17:46:42;33.00;;;16.90;;
79375;SDS011;68846;53.150;18.136;2023-03-30T17:49:16;31.60;;;18.20;;
79375;SDS011;68846;53.150;18.136;2023-03-30T17:51:48;29.70;;;17.40;;
79375;SDS011;68846;53.150;18.136;2023-03-30T17:54:21;31.30;;;17.30;;
79375;SDS011;68846;53.150;18.136;2023-03-30T17:59:22;28.00;;;14.80;;
79375;SDS011;68846;53.150;18.136;2023-03-30T18:01:52;25.30;;;15.40;;
79375;SDS011;68846;53.150;18.136;2023-03-30T18:04:22;26.60;;;15.50;;
79375;SDS011;68846;53.150;18.136;2023-03-30T18:06:52;27.20;;;16.10;;
79375;SDS011;68846;53.150;18.136;2023-03-30T18:09:21;28.20;;;15.80;;
79375;SDS011;68846;53.150;18.136;2023-03-30T18:11:50;24.30;;;15.40;;
79375;SDS011;68846;53.150;18.136;2023-03-30T18:14:23;25.70;;;16.70;;
79375;SDS011;68846;53.150;18.136;2023-03-30T18:16:54;27.60;;;15.90;;
79375;SDS011;68846;53.150;18.136;2023-03-30T18:19:28;25.30;;;14.50;;
79375;SDS011;68846;53.150;18.136;2023-03-30T18:22:01;25.20;;;13.90;;
79375;SDS011;68846;53.150;18.136;2023-03-30T18:24:32;25.30;;;14.90;;
79375;SDS011;68846;53.150;18.136;2023-03-30T18:27:08;22.30;;;14.10;;
79375;SDS011;68846;53.150;18.136;2023-03-30T18:29:45;26.90;;;15.30;;
79375;SDS011;68846;53.150;18.136;2023-03-30T18:32:23;25.40;;;15.70;;
79375;SDS011;68846;53.150;18.136;2023-03-30T18:34:56;25.50;;;15.00;;